Lakeridge, Washington
Current Conditions -  °F | °C
As of 3:58 PM on Wednesday 26 Nov 2014 (Local Time) from KTCM Reporting Station
Overcast Overcast  
Wind Chill: 58°   Ceiling: 3800
Heat Index: 58°   Visibility: 10mi
Dew Point: 54°   Wind: 6mph
Humidity: 84%   Direction: 170°S
Pressure: 30.01"   Gusts: NA
Location:  47.1874°N, 122.164°W
Report Text: KTCM 262358Z AUTO 17005KT 10SM OVC038 15/12 A3001 RMK AO2 SLP166 T01470120 10151 20124 56024 $
Loading
Personal Weather Stations






























Interactive Weather Map New forecast layout! Learn more

10-Day Weather Forecast

Advertisements
Track Severe Weather on mobile